createdAt,value
2022-12-24T00:00:51.225Z,10.7
2022-12-24T00:02:50.756Z,10.7
2022-12-24T00:05:02.036Z,10.8
2022-12-24T00:06:50.688Z,10.8
2022-12-24T00:08:50.316Z,10.8
2022-12-24T00:10:50.923Z,10.8
2022-12-24T00:12:50.540Z,10.8
2022-12-24T00:14:50.376Z,10.8
2022-12-24T00:16:50.766Z,10.8
2022-12-24T00:18:50.579Z,10.9
2022-12-24T00:20:50.188Z,10.9
2022-12-24T00:22:50.806Z,11.0
2022-12-24T00:24:50.435Z,11.0
2022-12-24T00:26:50.481Z,11.0
2022-12-24T00:28:50.285Z,11.0
2022-12-24T00:30:50.434Z,11.0
2022-12-24T00:32:50.308Z,11.0
2022-12-24T00:34:50.510Z,11.0
2022-12-24T00:36:50.714Z,11.0
2022-12-24T00:38:50.394Z,11.0
2022-12-24T00:40:50.968Z,11.0
2022-12-24T00:42:50.559Z,11.0
2022-12-24T00:44:50.215Z,10.9
2022-12-24T00:46:50.408Z,11.0
2022-12-24T00:48:49.991Z,10.9
2022-12-24T00:50:50.871Z,10.9
2022-12-24T00:52:50.640Z,10.9
2022-12-24T00:54:50.496Z,10.9
2022-12-24T00:56:50.496Z,10.9
2022-12-24T00:58:50.169Z,10.9
2022-12-24T01:00:50.897Z,10.9
2022-12-24T01:02:51.424Z,10.9
2022-12-24T01:04:50.180Z,10.9
2022-12-24T01:06:50.156Z,10.9
2022-12-24T01:08:50.752Z,10.9
2022-12-24T01:10:50.372Z,10.9
2022-12-24T01:12:49.978Z,10.8
2022-12-24T01:14:50.624Z,10.8
2022-12-24T01:16:50.852Z,10.8
2022-12-24T01:18:50.580Z,10.8
2022-12-24T01:20:50.221Z,10.8
2022-12-24T01:22:50.834Z,10.8
2022-12-24T01:24:50.875Z,10.8
2022-12-24T01:26:50.873Z,10.8
2022-12-24T01:28:50.518Z,10.8
2022-12-24T01:30:50.461Z,10.8
2022-12-24T01:32:50.572Z,10.8
2022-12-24T01:34:50.189Z,10.8
2022-12-24T01:36:50.327Z,10.8
2022-12-24T01:38:50.187Z,10.8
2022-12-24T01:40:50.033Z,10.8
2022-12-24T01:42:49.987Z,10.7
2022-12-24T01:44:50.801Z,10.7
2022-12-24T01:46:51.335Z,10.7
2022-12-24T01:48:50.887Z,10.6
2022-12-24T01:50:50.446Z,10.6
2022-12-24T01:52:50.107Z,10.6
2022-12-24T01:54:50.860Z,10.5
2022-12-24T01:56:51.211Z,10.5
2022-12-24T01:58:50.165Z,10.5
2022-12-24T02:00:50.949Z,10.4
2022-12-24T02:02:51.283Z,10.4
2022-12-24T02:04:50.757Z,10.3
2022-12-24T02:06:50.787Z,10.2
2022-12-24T02:08:50.345Z,10.2
2022-12-24T02:10:49.996Z,10.2
2022-12-24T02:12:50.611Z,10.2
2022-12-24T02:14:50.269Z,10.1
2022-12-24T02:16:50.310Z,10.1
2022-12-24T02:18:50.821Z,10.0
2022-12-24T02:20:50.717Z,10.0
2022-12-24T02:22:50.309Z,9.9
2022-12-24T02:24:50.113Z,9.9
2022-12-24T02:26:50.287Z,9.9
2022-12-24T02:28:50.922Z,9.8
2022-12-24T02:30:50.685Z,9.8
2022-12-24T02:32:50.312Z,9.8
2022-12-24T02:34:50.224Z,9.8
2022-12-24T02:36:50.163Z,9.8
2022-12-24T02:38:50.802Z,9.7
2022-12-24T02:40:50.474Z,9.7
2022-12-24T02:42:50.200Z,9.7
2022-12-24T02:44:50.827Z,9.6
2022-12-24T02:46:51.513Z,9.6
2022-12-24T02:48:50.174Z,9.6
2022-12-24T02:50:50.892Z,9.5
2022-12-24T02:52:50.515Z,9.5
2022-12-24T02:54:50.095Z,9.5
2022-12-24T02:56:50.125Z,9.4
2022-12-24T02:58:50.752Z,9.4
2022-12-24T03:00:50.667Z,9.3
2022-12-24T03:02:50.780Z,9.3
2022-12-24T03:04:50.059Z,9.3
2022-12-24T03:06:49.981Z,9.3
2022-12-24T03:08:50.031Z,9.3
2022-12-24T03:10:50.614Z,9.3
2022-12-24T03:12:50.251Z,9.2
2022-12-24T03:14:50.858Z,9.2
2022-12-24T03:16:50.375Z,9.2
2022-12-24T03:18:50.319Z,9.2
2022-12-24T03:20:50.858Z,9.2
2022-12-24T03:22:50.707Z,9.2
2022-12-24T03:24:50.304Z,9.2
2022-12-24T03:26:50.129Z,9.1
2022-12-24T03:28:50.768Z,9.1
2022-12-24T03:30:50.403Z,9.1
2022-12-24T03:32:50.940Z,9.1
2022-12-24T03:34:50.226Z,9.1
2022-12-24T03:36:50.429Z,9.1
2022-12-24T03:38:50.261Z,9.1
2022-12-24T03:40:50.911Z,9.1
2022-12-24T03:42:50.667Z,9.1
2022-12-24T03:44:50.281Z,9.0
2022-12-24T03:46:50.096Z,9.0
2022-12-24T03:48:50.679Z,9.0
2022-12-24T03:50:50.333Z,9.0
2022-12-24T03:52:50.832Z,9.0
2022-12-24T03:54:50.554Z,9.0
2022-12-24T03:56:50.578Z,9.0
2022-12-24T03:58:50.433Z,8.9
2022-12-24T04:00:50.256Z,8.9
2022-12-24T04:02:50.489Z,8.9
2022-12-24T04:04:50.057Z,8.9
2022-12-24T04:06:50.008Z,8.8
2022-12-24T04:08:50.686Z,8.8
2022-12-24T04:10:50.297Z,8.8
2022-12-24T04:12:50.122Z,8.7
2022-12-24T04:14:50.779Z,8.7
2022-12-24T04:16:51.192Z,8.7
2022-12-24T04:18:50.130Z,8.6
2022-12-24T04:20:50.720Z,8.6
2022-12-24T04:22:50.349Z,8.6
2022-12-24T04:24:50.991Z,8.5
2022-12-24T04:26:49.980Z,8.5
2022-12-24T04:28:50.538Z,8.5
2022-12-24T04:30:50.167Z,8.5
2022-12-24T04:32:50.601Z,8.5
2022-12-24T04:34:50.644Z,8.5
2022-12-24T04:36:50.477Z,8.4
2022-12-24T04:38:50.269Z,8.4
2022-12-24T04:40:50.110Z,8.4
2022-12-24T04:42:50.640Z,8.5
2022-12-24T04:44:50.335Z,8.5
2022-12-24T04:46:50.363Z,8.5
2022-12-24T04:48:50.132Z,8.5
2022-12-24T04:50:50.615Z,8.5
2022-12-24T04:52:50.195Z,8.6
2022-12-24T04:54:50.008Z,8.6
2022-12-24T04:56:49.992Z,8.6
2022-12-24T04:58:50.662Z,8.7
2022-12-24T05:00:50.788Z,8.7
2022-12-24T05:02:51.172Z,8.7
2022-12-24T05:04:50.684Z,8.8
2022-12-24T05:06:50.664Z,8.8
2022-12-24T05:08:50.556Z,8.8
2022-12-24T05:10:50.284Z,8.9
2022-12-24T05:12:50.125Z,8.9
2022-12-24T05:14:50.735Z,8.9
2022-12-24T05:16:50.996Z,8.9
2022-12-24T05:18:50.968Z,8.9
2022-12-24T05:20:50.744Z,9.0
2022-12-24T05:22:50.646Z,9.0
2022-12-24T05:24:50.187Z,9.0
2022-12-24T05:26:50.280Z,9.0
2022-12-24T05:28:50.863Z,9.0
2022-12-24T05:30:50.526Z,9.0
2022-12-24T05:32:50.291Z,9.1
2022-12-24T05:34:50.544Z,9.1
2022-12-24T05:36:50.768Z,9.1
2022-12-24T05:38:50.536Z,9.1
2022-12-24T05:40:50.375Z,9.1
2022-12-24T05:42:50.127Z,9.1
2022-12-24T05:44:50.965Z,9.1
2022-12-24T05:46:50.730Z,9.1
2022-12-24T05:48:50.405Z,9.2
2022-12-24T05:50:50.060Z,9.2
2022-12-24T05:52:50.789Z,9.2
2022-12-24T05:54:50.393Z,9.2
2022-12-24T05:56:50.446Z,9.2
2022-12-24T05:58:50.305Z,9.2
2022-12-24T06:00:50.126Z,9.2
2022-12-24T06:02:51.132Z,9.2
2022-12-24T06:04:50.490Z,9.2
2022-12-24T06:06:50.515Z,9.3
2022-12-24T06:08:50.201Z,9.2
2022-12-24T06:10:50.928Z,9.2
2022-12-24T06:12:50.736Z,9.2
2022-12-24T06:14:50.355Z,9.2
2022-12-24T06:16:50.416Z,9.2
2022-12-24T06:18:49.995Z,9.2
2022-12-24T06:20:50.611Z,9.2
2022-12-24T06:22:50.453Z,9.2
2022-12-24T06:24:50.039Z,9.2
2022-12-24T06:26:50.066Z,9.2
2022-12-24T06:28:50.906Z,9.2
2022-12-24T06:30:50.867Z,9.3
2022-12-24T06:32:50.485Z,9.3
2022-12-24T06:34:50.714Z,9.3
2022-12-24T06:36:50.038Z,9.2
2022-12-24T06:38:50.726Z,9.3
2022-12-24T06:40:50.335Z,9.3
2022-12-24T06:42:50.959Z,9.3
2022-12-24T06:44:50.591Z,9.2
2022-12-24T06:46:50.733Z,9.2
2022-12-24T06:48:50.683Z,9.3
2022-12-24T06:50:50.212Z,9.3
2022-12-24T06:52:50.847Z,9.3
2022-12-24T06:54:50.447Z,9.3
2022-12-24T06:56:50.580Z,9.4
2022-12-24T06:58:50.191Z,9.4
2022-12-24T07:00:50.781Z,9.4
2022-12-24T07:02:50.853Z,9.4
2022-12-24T07:04:50.282Z,9.4
2022-12-24T07:06:50.485Z,9.5
2022-12-24T07:08:50.053Z,9.5
2022-12-24T07:10:55.146Z,9.5
2022-12-24T07:12:50.893Z,9.5
2022-12-24T07:14:50.575Z,9.5
2022-12-24T07:17:00.041Z,9.5
2022-12-24T07:18:50.821Z,9.5
2022-12-24T07:20:50.602Z,9.4
2022-12-24T07:22:50.381Z,9.4
2022-12-24T07:24:50.008Z,9.4
2022-12-24T07:26:50.236Z,9.4
2022-12-24T07:28:50.002Z,9.4
2022-12-24T07:30:50.809Z,9.4
2022-12-24T07:32:50.436Z,9.4
2022-12-24T07:34:50.467Z,9.4
2022-12-24T07:36:50.665Z,9.4
2022-12-24T07:38:50.527Z,9.3
2022-12-24T07:40:50.060Z,9.3
2022-12-24T07:42:50.575Z,9.3
2022-12-24T07:44:50.326Z,9.3
2022-12-24T07:46:50.615Z,9.3
2022-12-24T07:48:50.375Z,9.3
2022-12-24T07:50:50.985Z,9.3
2022-12-24T07:52:50.771Z,9.3
2022-12-24T07:54:50.416Z,9.3
2022-12-24T07:56:50.444Z,9.3
2022-12-24T07:58:50.203Z,9.3
2022-12-24T08:00:50.051Z,9.3
2022-12-24T08:02:51.708Z,9.3
2022-12-24T08:04:50.447Z,9.3
2022-12-24T08:06:50.503Z,9.3
2022-12-24T08:08:50.157Z,9.3
2022-12-24T08:10:51.058Z,9.3
2022-12-24T08:12:50.620Z,9.3
2022-12-24T08:14:50.361Z,9.3
2022-12-24T08:16:50.728Z,9.4
2022-12-24T08:18:50.573Z,9.4
2022-12-24T08:20:50.188Z,9.4
2022-12-24T08:22:50.754Z,9.5
2022-12-24T08:24:50.430Z,9.5
2022-12-24T08:26:50.474Z,9.5
2022-12-24T08:28:50.040Z,9.5
2022-12-24T08:30:50.857Z,9.6
2022-12-24T08:32:50.469Z,9.7
2022-12-24T08:34:50.715Z,9.7
2022-12-24T08:36:50.705Z,9.7
2022-12-24T08:38:50.544Z,9.7
2022-12-24T08:40:50.753Z,9.8
2022-12-24T08:42:51.016Z,9.8
2022-12-24T08:44:50.940Z,9.8
2022-12-24T08:46:50.774Z,9.8
2022-12-24T08:48:50.394Z,9.8
2022-12-24T08:50:49.992Z,9.9
2022-12-24T08:52:50.659Z,9.9
2022-12-24T08:54:50.463Z,10.0
2022-12-24T08:56:50.469Z,10.1
2022-12-24T08:58:50.081Z,10.1
2022-12-24T09:00:50.948Z,10.2
2022-12-24T09:02:51.053Z,10.2
2022-12-24T09:04:50.527Z,10.2
2022-12-24T09:06:50.496Z,10.2
2022-12-24T09:08:50.124Z,10.2
2022-12-24T09:10:50.957Z,10.3
2022-12-24T09:12:50.578Z,10.3
2022-12-24T09:14:50.399Z,10.3
2022-12-24T09:16:50.630Z,10.4
2022-12-24T09:18:50.418Z,10.4
2022-12-24T09:20:57.834Z,10.4
2022-12-24T09:22:50.648Z,10.4
2022-12-24T09:24:50.300Z,10.5
2022-12-24T09:26:58.491Z,10.5
2022-12-24T09:28:50.304Z,10.5
2022-12-24T09:30:50.855Z,10.5
2022-12-24T09:32:50.480Z,10.5
2022-12-24T09:34:50.562Z,10.6
2022-12-24T09:36:50.320Z,10.6
2022-12-24T09:38:50.122Z,10.6
2022-12-24T09:40:51.062Z,10.6
2022-12-24T09:42:50.761Z,10.6
2022-12-24T09:44:50.376Z,10.6
2022-12-24T09:46:50.215Z,10.6
2022-12-24T09:48:50.849Z,10.7
2022-12-24T09:50:50.479Z,10.7
2022-12-24T09:52:50.235Z,10.7
2022-12-24T09:54:50.687Z,10.7
2022-12-24T09:56:50.723Z,10.8
2022-12-24T09:58:50.490Z,10.8
2022-12-24T10:00:50.958Z,10.8
2022-12-24T10:02:51.271Z,10.8
2022-12-24T10:04:50.773Z,10.8
2022-12-24T10:06:49.989Z,10.9
2022-12-24T10:08:50.829Z,10.9
2022-12-24T10:10:50.640Z,10.9
2022-12-24T10:12:50.703Z,10.9
2022-12-24T10:14:50.654Z,11.0
2022-12-24T10:16:51.168Z,11.0
2022-12-24T10:18:50.262Z,11.0
2022-12-24T10:20:50.849Z,11.0
2022-12-24T10:22:50.508Z,11.0
2022-12-24T10:24:51.399Z,11.1
2022-12-24T10:26:50.328Z,11.0
2022-12-24T10:28:50.095Z,11.0
2022-12-24T10:30:51.099Z,11.1
2022-12-24T10:32:50.985Z,11.1
2022-12-24T10:34:50.162Z,11.1
2022-12-24T10:36:50.177Z,11.1
2022-12-24T10:38:50.811Z,11.1
2022-12-24T10:40:50.601Z,11.1
2022-12-24T10:42:52.360Z,11.1
2022-12-24T10:44:50.110Z,11.1
2022-12-24T10:46:50.237Z,11.1
2022-12-24T10:48:51.540Z,11.1
2022-12-24T10:50:50.085Z,11.0
2022-12-24T10:52:50.883Z,11.1
2022-12-24T10:54:50.485Z,11.1
2022-12-24T10:56:50.507Z,11.2
2022-12-24T10:58:50.165Z,11.2
2022-12-24T11:00:50.947Z,11.3
2022-12-24T11:02:51.781Z,11.3
2022-12-24T11:04:50.464Z,11.3
2022-12-24T11:06:50.340Z,11.4
2022-12-24T11:08:50.005Z,11.4
2022-12-24T11:10:50.793Z,11.4
2022-12-24T11:13:36.677Z,11.4
2022-12-24T11:14:50.832Z,11.4
2022-12-24T11:16:50.061Z,11.4
2022-12-24T11:18:52.943Z,11.4
2022-12-24T11:20:50.474Z,11.4
2022-12-24T11:22:50.133Z,11.4
2022-12-24T11:24:51.017Z,11.4
2022-12-24T11:26:50.941Z,11.4
2022-12-24T11:28:50.574Z,11.4
2022-12-24T11:30:50.414Z,11.5
2022-12-24T11:32:50.183Z,11.5
2022-12-24T11:34:50.420Z,11.5
2022-12-24T11:36:50.482Z,11.5
2022-12-24T11:38:50.213Z,11.6
2022-12-24T11:40:50.103Z,11.6
2022-12-24T11:42:50.840Z,11.6
2022-12-24T11:44:50.441Z,11.6
2022-12-24T11:46:50.446Z,11.6
2022-12-24T11:48:50.272Z,11.7
2022-12-24T11:50:51.008Z,11.6
2022-12-24T11:52:50.751Z,11.6
2022-12-24T11:54:50.457Z,11.6
2022-12-24T11:56:50.350Z,11.5
2022-12-24T11:58:50.000Z,11.5
2022-12-24T12:00:50.601Z,11.5
2022-12-24T12:02:50.550Z,11.5
2022-12-24T12:04:50.832Z,11.5
2022-12-24T12:06:50.599Z,11.6
2022-12-24T12:08:50.236Z,11.6
2022-12-24T12:10:50.066Z,11.6
2022-12-24T12:12:50.661Z,11.6
2022-12-24T12:14:50.772Z,11.6
2022-12-24T12:16:50.713Z,11.6
2022-12-24T12:18:50.349Z,11.6
2022-12-24T12:20:51.025Z,11.6
2022-12-24T12:22:50.832Z,11.6
2022-12-24T12:24:50.670Z,11.6
2022-12-24T12:26:50.771Z,11.6
2022-12-24T12:28:50.572Z,11.7
2022-12-24T12:30:50.379Z,11.7
2022-12-24T12:32:50.455Z,11.7
2022-12-24T12:34:50.080Z,11.8
2022-12-24T12:36:50.239Z,11.9
2022-12-24T12:38:50.054Z,11.8
2022-12-24T12:40:50.666Z,11.8
2022-12-24T12:42:50.256Z,11.9
2022-12-24T12:44:50.961Z,11.9
2022-12-24T12:46:51.333Z,11.9
2022-12-24T12:48:50.338Z,11.9
2022-12-24T12:50:50.322Z,11.9
2022-12-24T12:52:50.175Z,11.9
2022-12-24T12:54:49.967Z,11.8
2022-12-24T12:56:49.980Z,11.9
2022-12-24T12:58:50.607Z,11.9
2022-12-24T13:00:50.385Z,11.9
2022-12-24T13:02:50.792Z,11.8
2022-12-24T13:04:50.256Z,11.8
2022-12-24T13:06:50.052Z,11.9
2022-12-24T13:08:50.673Z,11.9
2022-12-24T13:10:50.290Z,12.0
2022-12-24T13:12:50.119Z,12.0
2022-12-24T13:14:50.754Z,12.1
2022-12-24T13:16:51.304Z,12.1
2022-12-24T13:18:50.334Z,12.1
2022-12-24T13:20:51.002Z,12.1
2022-12-24T13:22:50.624Z,12.1
2022-12-24T13:24:53.008Z,12.1
2022-12-24T13:26:50.021Z,12.0
2022-12-24T13:28:50.786Z,12.0
2022-12-24T13:30:50.499Z,12.0
2022-12-24T13:32:50.234Z,12.0
2022-12-24T13:34:51.284Z,12.0
2022-12-24T13:36:50.251Z,12.0
2022-12-24T13:38:50.941Z,12.0
2022-12-24T13:40:50.496Z,12.0
2022-12-24T13:42:50.180Z,12.0
2022-12-24T13:44:50.930Z,12.0
2022-12-24T13:46:50.972Z,12.0
2022-12-24T13:48:50.784Z,12.0
2022-12-24T13:50:50.447Z,12.0
2022-12-24T13:52:50.207Z,11.9
2022-12-24T13:54:50.880Z,11.9
2022-12-24T13:56:50.828Z,11.8
2022-12-24T13:58:50.664Z,11.8
2022-12-24T14:00:50.650Z,11.7
2022-12-24T14:02:51.192Z,11.7
2022-12-24T14:04:50.707Z,11.7
2022-12-24T14:06:50.920Z,11.6
2022-12-24T14:08:50.507Z,11.6
2022-12-24T14:10:50.357Z,11.5
2022-12-24T14:12:50.912Z,11.4
2022-12-24T14:14:50.583Z,11.4
2022-12-24T14:16:51.406Z,11.4
2022-12-24T14:18:50.387Z,11.4
2022-12-24T14:20:50.204Z,11.3
2022-12-24T14:22:50.771Z,11.3
2022-12-24T14:24:50.445Z,11.2
2022-12-24T14:26:50.464Z,11.2
2022-12-24T14:28:50.139Z,11.2
2022-12-24T14:30:50.699Z,11.1
2022-12-24T14:32:50.551Z,11.0
2022-12-24T14:34:50.717Z,11.0
2022-12-24T14:36:50.708Z,11.0
2022-12-24T14:38:50.522Z,11.0
2022-12-24T14:40:50.161Z,10.9
2022-12-24T14:42:50.949Z,10.8
2022-12-24T14:44:50.760Z,10.8
2022-12-24T14:46:50.845Z,10.8
2022-12-24T14:48:50.573Z,10.7
2022-12-24T14:50:50.241Z,10.6
2022-12-24T14:53:16.776Z,10.6
2022-12-24T14:54:50.284Z,10.6
2022-12-24T14:56:50.244Z,10.6
2022-12-24T14:58:50.941Z,10.5
2022-12-24T15:00:50.976Z,10.4
2022-12-24T15:02:51.473Z,10.4
2022-12-24T15:04:50.978Z,10.4
2022-12-24T15:06:50.910Z,10.3
2022-12-24T15:08:50.798Z,10.2
2022-12-24T15:10:50.683Z,10.2
2022-12-24T15:12:50.435Z,10.2
2022-12-24T15:14:50.344Z,10.2
2022-12-24T15:16:50.678Z,10.1
2022-12-24T15:18:50.752Z,10.1
2022-12-24T15:20:50.691Z,10.0
2022-12-24T15:22:50.486Z,10.0
2022-12-24T15:24:50.282Z,10.0
2022-12-24T15:26:50.296Z,9.9
2022-12-24T15:28:50.175Z,9.9
2022-12-24T15:30:50.273Z,9.9
2022-12-24T15:32:50.965Z,9.8
2022-12-24T15:34:50.143Z,9.8
2022-12-24T15:36:50.363Z,9.8
2022-12-24T15:38:50.942Z,9.8
2022-12-24T15:40:50.795Z,9.8
2022-12-24T15:42:50.611Z,9.7
2022-12-24T15:44:50.413Z,9.6
2022-12-24T15:46:50.528Z,9.6
2022-12-24T15:48:50.469Z,9.6
2022-12-24T15:50:50.148Z,9.5
2022-12-24T15:53:21.950Z,9.5
2022-12-24T15:54:58.831Z,9.4
2022-12-24T15:56:50.934Z,9.3
2022-12-24T15:58:50.496Z,9.3
2022-12-24T16:00:50.328Z,9.3
2022-12-24T16:02:51.193Z,9.3
2022-12-24T16:04:50.768Z,9.2
2022-12-24T16:06:50.769Z,9.2
2022-12-24T16:08:50.610Z,9.2
2022-12-24T16:10:50.416Z,9.1
2022-12-24T16:12:50.267Z,9.0
2022-12-24T16:14:50.908Z,8.9
2022-12-24T16:16:50.937Z,8.9
2022-12-24T16:18:50.701Z,8.9
2022-12-24T16:20:50.268Z,8.8
2022-12-24T16:22:50.869Z,8.7
2022-12-24T16:24:50.673Z,8.6
2022-12-24T16:26:50.558Z,8.5
2022-12-24T16:28:50.521Z,8.5
2022-12-24T16:30:50.596Z,8.4
2022-12-24T16:32:50.570Z,8.4
2022-12-24T16:34:50.751Z,8.3
2022-12-24T16:36:50.604Z,8.3
2022-12-24T16:38:50.203Z,8.2
2022-12-24T16:40:50.078Z,8.2
2022-12-24T16:42:50.708Z,8.1
2022-12-24T16:44:50.492Z,8.1
2022-12-24T16:46:50.971Z,8.1
2022-12-24T16:48:50.966Z,8.1
2022-12-24T16:50:50.688Z,8.0
2022-12-24T16:52:50.520Z,8.0
2022-12-24T16:54:50.462Z,8.0
2022-12-24T16:56:50.568Z,8.0
2022-12-24T16:58:50.364Z,8.0
2022-12-24T17:00:50.954Z,8.0
2022-12-24T17:02:51.705Z,8.0
2022-12-24T17:04:50.014Z,8.0
2022-12-24T17:06:50.194Z,8.0
2022-12-24T17:08:50.023Z,8.0
2022-12-24T17:10:50.669Z,8.0
2022-12-24T17:12:50.469Z,8.0
2022-12-24T17:14:50.073Z,8.0
2022-12-24T17:16:50.081Z,8.0
2022-12-24T17:18:50.807Z,8.0
2022-12-24T17:20:50.698Z,8.0
2022-12-24T17:22:50.534Z,8.0
2022-12-24T17:24:50.346Z,8.0
2022-12-24T17:26:50.565Z,8.0
2022-12-24T17:28:50.385Z,8.0
2022-12-24T17:30:50.285Z,8.0
2022-12-24T17:32:50.206Z,8.1
2022-12-24T17:34:50.419Z,8.1
2022-12-24T17:36:50.296Z,8.0
2022-12-24T17:38:50.016Z,8.0
2022-12-24T17:40:50.888Z,8.0
2022-12-24T17:42:50.688Z,8.1
2022-12-24T17:44:50.524Z,8.1
2022-12-24T17:46:51.015Z,8.1
2022-12-24T17:48:50.942Z,8.1
2022-12-24T17:50:51.005Z,8.1
2022-12-24T17:52:51.024Z,8.2
2022-12-24T17:54:50.775Z,8.2
2022-12-24T17:56:50.192Z,8.2
2022-12-24T17:58:50.949Z,8.2
2022-12-24T18:00:50.832Z,8.2
2022-12-24T18:02:51.122Z,8.3
2022-12-24T18:04:50.436Z,8.3
2022-12-24T18:07:02.331Z,8.3
2022-12-24T18:08:50.474Z,8.3
2022-12-24T18:10:50.350Z,8.3
2022-12-24T18:12:50.387Z,8.3
2022-12-24T18:14:50.327Z,8.3
2022-12-24T18:16:51.033Z,8.4
2022-12-24T18:18:50.133Z,8.4
2022-12-24T18:20:51.048Z,8.4
2022-12-24T18:22:50.900Z,8.4
2022-12-24T18:24:50.753Z,8.4
2022-12-24T18:26:50.813Z,8.4
2022-12-24T18:28:50.609Z,8.4
2022-12-24T18:30:50.222Z,8.4
2022-12-24T18:32:50.039Z,8.4
2022-12-24T18:34:50.476Z,8.4
2022-12-24T18:36:56.176Z,8.4
2022-12-24T18:38:50.933Z,8.4
2022-12-24T18:40:50.909Z,8.4
2022-12-24T18:42:50.485Z,8.5
2022-12-24T18:44:50.339Z,8.5
2022-12-24T18:46:50.580Z,8.5
2022-12-24T18:48:50.392Z,8.5
2022-12-24T18:50:50.398Z,8.5
2022-12-24T18:52:49.949Z,8.5
2022-12-24T18:54:50.601Z,8.5
2022-12-24T18:56:50.815Z,8.5
2022-12-24T18:58:50.626Z,8.5
2022-12-24T19:00:50.920Z,8.6
2022-12-24T19:02:51.406Z,8.6
2022-12-24T19:04:50.893Z,8.6
2022-12-24T19:06:54.065Z,8.6
2022-12-24T19:09:02.438Z,8.6
2022-12-24T19:10:50.713Z,8.7
2022-12-24T19:12:50.288Z,8.7
2022-12-24T19:14:50.989Z,8.7
2022-12-24T19:16:50.409Z,8.7
2022-12-24T19:18:50.230Z,8.7
2022-12-24T19:20:50.200Z,8.7
2022-12-24T19:22:50.068Z,8.7
2022-12-24T19:24:50.023Z,8.7
2022-12-24T19:26:50.865Z,8.8
2022-12-24T19:28:50.744Z,8.8
2022-12-24T19:30:50.459Z,8.7
2022-12-24T19:32:50.243Z,8.7
2022-12-24T19:34:50.492Z,8.7
2022-12-24T19:36:50.670Z,8.7
2022-12-24T19:38:50.681Z,8.7
2022-12-24T19:40:50.515Z,8.8
2022-12-24T19:42:50.261Z,8.8
2022-12-24T19:44:50.950Z,8.8
2022-12-24T19:46:49.964Z,8.8
2022-12-24T19:48:50.605Z,8.8
2022-12-24T19:50:50.218Z,8.8
2022-12-24T19:52:51.136Z,8.9
2022-12-24T19:54:50.867Z,8.9
2022-12-24T19:56:50.040Z,8.8
2022-12-24T19:58:50.658Z,8.9
2022-12-24T20:00:50.469Z,8.9
2022-12-24T20:02:50.980Z,8.9
2022-12-24T20:04:50.487Z,8.9
2022-12-24T20:07:01.251Z,8.9
2022-12-24T20:08:50.748Z,8.9
2022-12-24T20:10:50.329Z,8.9
2022-12-24T20:12:50.166Z,8.9
2022-12-24T20:14:50.854Z,8.9
2022-12-24T20:16:51.146Z,8.9
2022-12-24T20:18:50.819Z,8.9
2022-12-24T20:20:50.430Z,8.9
2022-12-24T20:22:50.192Z,8.9
2022-12-24T20:24:50.952Z,8.9
2022-12-24T20:26:50.076Z,8.9
2022-12-24T20:28:50.722Z,8.9
2022-12-24T20:30:50.526Z,8.9
2022-12-24T20:32:50.395Z,8.9
2022-12-24T20:34:50.830Z,8.9
2022-12-24T20:36:50.748Z,8.9
2022-12-24T20:38:50.333Z,8.9
2022-12-24T20:40:50.156Z,8.9
2022-12-24T20:42:50.012Z,8.9
2022-12-24T20:44:50.814Z,8.9
2022-12-24T20:46:50.015Z,8.9
2022-12-24T20:48:50.607Z,8.9
2022-12-24T20:50:52.018Z,8.9
2022-12-24T20:52:50.635Z,8.9
2022-12-24T20:54:50.808Z,8.9
2022-12-24T20:56:59.425Z,8.9
2022-12-24T20:58:50.151Z,8.9
2022-12-24T21:00:51.088Z,8.9
2022-12-24T21:02:51.676Z,8.9
2022-12-24T21:05:01.817Z,8.9
2022-12-24T21:06:50.532Z,8.9
2022-12-24T21:08:50.463Z,8.9
2022-12-24T21:10:50.174Z,8.9
2022-12-24T21:12:50.014Z,9.0
2022-12-24T21:14:50.800Z,8.9
2022-12-24T21:16:50.499Z,8.9
2022-12-24T21:18:50.509Z,8.9
2022-12-24T21:20:50.255Z,8.9
2022-12-24T21:23:01.705Z,8.9
2022-12-24T21:24:50.947Z,8.9
2022-12-24T21:26:50.781Z,8.9
2022-12-24T21:28:50.761Z,8.9
2022-12-24T21:30:50.764Z,8.9
2022-12-24T21:32:50.762Z,8.9
2022-12-24T21:34:49.973Z,8.9
2022-12-24T21:36:51.049Z,8.9
2022-12-24T21:38:50.828Z,8.9
2022-12-24T21:40:50.643Z,8.9
2022-12-24T21:42:50.433Z,8.9
2022-12-24T21:44:50.453Z,8.9
2022-12-24T21:46:50.455Z,8.9
2022-12-24T21:48:50.253Z,8.9
2022-12-24T21:50:50.852Z,8.9
2022-12-24T21:52:50.660Z,8.9
2022-12-24T21:54:50.291Z,8.9
2022-12-24T21:56:50.518Z,8.9
2022-12-24T21:58:50.142Z,8.9
2022-12-24T22:00:51.111Z,8.8
2022-12-24T22:02:52.497Z,8.9
2022-12-24T22:04:50.214Z,8.8
2022-12-24T22:06:50.361Z,8.8
2022-12-24T22:08:49.995Z,8.8
2022-12-24T22:10:50.655Z,8.8
2022-12-24T22:12:50.434Z,8.8
2022-12-24T22:14:50.041Z,8.8
2022-12-24T22:16:50.450Z,8.7
2022-12-24T22:18:50.261Z,8.7
2022-12-24T22:20:50.883Z,8.7
2022-12-24T22:22:50.508Z,8.7
2022-12-24T22:24:50.106Z,8.7
2022-12-24T22:26:50.152Z,8.7
2022-12-24T22:28:50.728Z,8.7
2022-12-24T22:30:50.507Z,8.7
2022-12-24T22:32:50.381Z,8.7
2022-12-24T22:34:50.417Z,8.6
2022-12-24T22:36:50.654Z,8.6
2022-12-24T22:38:50.422Z,8.6
2022-12-24T22:40:50.226Z,8.6
2022-12-24T22:42:50.046Z,8.6
2022-12-24T22:44:50.883Z,8.6
2022-12-24T22:46:50.849Z,8.6
2022-12-24T22:48:50.692Z,8.6
2022-12-24T22:50:50.352Z,8.6
2022-12-24T22:52:50.908Z,8.6
2022-12-24T22:54:50.495Z,8.6
2022-12-24T22:56:50.552Z,8.6
2022-12-24T22:58:50.143Z,8.6
2022-12-24T23:00:50.761Z,8.5
2022-12-24T23:02:51.004Z,8.5
2022-12-24T23:04:50.420Z,8.5
2022-12-24T23:06:50.450Z,8.5
2022-12-24T23:08:50.243Z,8.5
2022-12-24T23:10:50.877Z,8.5
2022-12-24T23:12:50.690Z,8.5
2022-12-24T23:14:50.271Z,8.5
2022-12-24T23:16:50.298Z,8.5
2022-12-24T23:18:50.877Z,8.5
2022-12-24T23:20:50.567Z,8.5
2022-12-24T23:22:50.331Z,8.5
2022-12-24T23:24:50.943Z,8.5
2022-12-24T23:26:50.979Z,8.5
2022-12-24T23:28:50.790Z,8.5
2022-12-24T23:30:50.581Z,8.5
2022-12-24T23:32:50.628Z,8.5
2022-12-24T23:34:50.813Z,8.5
2022-12-24T23:36:50.876Z,8.5
2022-12-24T23:38:50.626Z,8.5
2022-12-24T23:40:50.477Z,8.5
2022-12-24T23:42:50.266Z,8.5
2022-12-24T23:44:50.103Z,8.5
2022-12-24T23:46:50.328Z,8.5
2022-12-24T23:48:50.318Z,8.5
2022-12-24T23:50:50.165Z,8.5
2022-12-24T23:52:50.135Z,8.6
2022-12-24T23:54:50.041Z,8.6
2022-12-24T23:56:49.951Z,8.7
2022-12-24T23:58:50.868Z,8.7
